GMFO/OUD METAR and TAF weather

Enter ICAO airport designator
Station Type Date Time Source
GMFO METAR 2022/08/12 15:00 UTC NOAA

GMFO 121500Z 33016KT 9999 FEW040TCU SCT200 38/17 Q1014 NOSIG


Station Type Date Time Source
GMFO Decoded METAR 2022/08/12 15:00 UTC NOAA

Oujda, Morocco (GMFO) 34-47N 001-56W 470M
Aug 12, 2022 - 11:00 AM EDT / 2022.08.12 1500 UTC
Wind: from the NNW (330 degrees) at 18 MPH (16 KT):0
Visibility: greater than 7 mile(s):0
Sky conditions: partly cloudy
Weather: Towering cumulus clouds observed
Temperature: 100 F (38 C)
Heat index: 101.7 F (38.7 C):1
Dew Point: 62 F (17 C)
Relative Humidity: 29%
Pressure (altimeter): 29.94 in. Hg (1014 hPa)
ob: GMFO 121500Z 33016KT 9999 FEW040TCU SCT200 38/17 Q1014 NOSIG
cycle: 15

Station Type Date Time Source
GMFO TAF 2022/08/12 12:21 UTC NOAA

TAF TAF GMFO 121100Z 1212/1318 04004KT CAVOK PROB30
TEMPO 1214/1219 33016KT FEW030CB

Example: see airport list